Flight Track Log - Related Links

Times and Time Zones

All times are in EDT time to prevent confusion due to time zone crossing. See the N91B flight status page for this flight to view local times or setup timezone preferences in your user account.

Time Position Orientation Groundspeed Altitude Reporting Facility
EDT Latitude Longitude Course Direction KTS MPH feet Rate Location/Type
Sat 07:48:00 PM 27.4178 -80.0582 129° Southeast  Level FlightAware Approximate
Sat 07:49:00 PM 27.3752 -79.9837 119° Southeast  Level FlightAware Approximate
Sat 07:50:00 PM 27.3365 -79.9062 119° Southeast  Level FlightAware Approximate
Sat 07:51:00 PM 27.2823 -79.8479 119° Southeast  Level FlightAware Approximate
Sat 07:52:00 PM 27.2427 -79.7712 124° Southeast  Level FlightAware Approximate
Sat 07:53:00 PM 27.1987 -79.6974 119° Southeast  Level FlightAware Approximate
Sat 07:54:00 PM 27.1483 -79.6307 125° Southeast  Level FlightAware Approximate
Sat 07:55:00 PM 27.1030 -79.5581 125° Southeast  Level FlightAware Approximate
Sat 07:56:00 PM 27.0572 -79.4858 127° Southeast  Level FlightAware Approximate
Sat 07:57:00 PM 27.0127 -79.4128 122° Southeast  Level FlightAware Approximate
Sat 07:58:00 PM 26.9709 -79.3376 122° Southeast  Level FlightAware Approximate
Sat 07:59:00 PM 26.9269 -79.2641 126° Southeast  Level FlightAware Approximate
Sat 08:00:00 PM 26.8806 -79.1924 126° Southeast  Level FlightAware Approximate
Sat 08:01:00 PM 26.8343 -79.1208 126° Southeast  Level FlightAware Approximate
Sat 08:02:00 PM 26.7880 -79.0492 126° Southeast  Level FlightAware Approximate
Sat 08:03:00 PM 26.7416 -78.9776 126° Southeast  Level FlightAware Approximate
Sat 08:04:00 PM 26.6952 -78.9061 126° Southeast  Level FlightAware Approximate
Sat 08:05:00 PM 26.6487 -78.8347 126° Southeast  Level FlightAware Approximate
Sat 08:06:00 PM 26.6022 -78.7634 126° Southeast  Level FlightAware Approximate
Sat 08:07:00 PM 26.5557 -78.6920 126° Southeast  Level FlightAware Approximate
Sat 08:08:00 PM 26.5038 -78.6256 132° Southeast  Level FlightAware Approximate
Sat 08:09:00 PM 26.4545 -78.5568 127° Southeast  Level FlightAware Approximate
Sat 08:10:00 PM 26.4059 -78.4874 128° Southeast  Level FlightAware Approximate
Sat 08:11:00 PM 26.3571 -78.4181 128° Southeast  Level FlightAware Approximate
Sat 08:12:00 PM 26.3082 -78.3490 128° Southeast  Level FlightAware Approximate
Sat 08:13:00 PM 26.2593 -78.2798 128° Southeast  Level FlightAware Approximate
Sat 08:14:00 PM 26.2024 -78.2191 138° Southeast  Level FlightAware Approximate
Sat 08:15:00 PM 26.1549 -78.1490 127° Southeast  Level FlightAware Approximate
Sat 08:16:00 PM 26.1078 -78.0784 127° Southeast  Level FlightAware Approximate
Sat 08:17:00 PM 26.0608 -78.0078 127° Southeast  Level FlightAware Approximate
Sat 08:18:00 PM 26.0118 -77.9390 131° Southeast  Level FlightAware Approximate
Sat 08:19:00 PM 25.9602 -77.8726 131° Southeast  Level FlightAware Approximate
Sat 08:20:00 PM 25.9087 -77.8060 130° Southeast  Level FlightAware Approximate
Sat 08:21:00 PM 25.8582 -77.7386 130° Southeast  Level FlightAware Approximate
Sat 08:22:00 PM 25.8076 -77.6712 130° Southeast  Level FlightAware Approximate
Sat 08:23:00 PM 25.7581 -77.6030 125° Southeast  Level FlightAware Approximate
Sat 08:24:00 PM 25.7132 -77.5310 125° Southeast  Level FlightAware Approximate
Sat 08:25:00 PM 25.6567 -77.4822 174° South  Level FlightAware Approximate
Sat 08:26:00 PM 25.5782 -77.4735 174° South  Level FlightAware Approximate
Sat 08:27:00 PM 25.4996 -77.4667 180° South  Level FlightAware Approximate
Sat 08:28:00 PM 25.4187 -77.4635 175° South  Level FlightAware Approximate
Sat 08:29:00 PM 25.3381 -77.4555 175° South  Level FlightAware Approximate
Sat 08:30:00 PM 25.2574 -77.4500 180° South  Level FlightAware Approximate
Sat 08:31:00 PM 25.1764 -77.4500 180° South  Level FlightAware Approximate
Sat 08:32:00 PM 25.0955 -77.4500 180° South  Level FlightAware Approximate
Sat 08:33:00 PM 25.0333 -77.4500 180° South  Level FlightAware Approximate
Sat 08:34:00 PM 25.0390 -77.4662 180° South  Level Estimated
Sat 08:35:00 PM 25.0390 -77.4662 180° South  Level Estimated
Sat 08:36:00 PM 25.0390 -77.4662 180° South  Level Estimated
Sat 08:37:00 PM 25.0390 -77.4662 180° South  Level Estimated
Sat 08:38:00 PM 25.0390 -77.4662 180° South  Level Estimated
Sat 08:39:00 PM 25.0390 -77.4662 180° South  Level Estimated
Sat 08:40:00 PM 25.0390 -77.4662 180° South  Level Estimated
Sat 08:41:00 PM 25.0390 -77.4662 180° South  Level Estimated
Sat 08:42:00 PM 25.0390 -77.4662 180° South  Level Estimated
Sat 08:43:00 PM 25.0390 -77.4662 180° South  Level Estimated
Sat 08:44:00 PM 25.0390 -77.4662 180° South  Level Estimated
Sat 08:45:00 PM 25.0390 -77.4662 180° South  Level Estimated
Sat 08:46:00 PM 25.0390 -77.4662 180° South  Level Estimated
Sat 08:47:00 PM 25.0390 -77.4662 180° South  Level Estimated
Sat 08:48:00 PM 25.0390 -77.4662 180° South  Level Estimated
Sat 08:49:00 PM 25.0390 -77.4662 180° South  Level Estimated
Sat 08:50:00 PM 25.0390 -77.4662 180° South  Level Estimated
Sat 08:51:00 PM 25.0390 -77.4662 180° South  Level Estimated
Sat 08:52:00 PM 25.0390 -77.4662 180° South  Level Estimated
Sat 08:53:00 PM 25.0390 -77.4662 180° South  Level Estimated
Sat 08:54:00 PM 25.0390 -77.4662 180° South  Level Estimated
Sat 08:55:00 PM 25.0390 -77.4662 180° South  Level Estimated
Sat 08:56:00 PM 25.0390 -77.4662 180° South  Level Estimated
Sat 08:57:00 PM 25.0390 -77.4662 180° South  Level Estimated
Sat 08:58:00 PM 25.0390 -77.4662 180° South  Level Estimated
Sat 08:58:19 PM 25.5892 -77.9647 180° South 328 377 13,600  Level Miami Center
Sat 08:59:00 PM 25.0390 -77.4662 180° South  Level Estimated
Sat 08:59:19 PM 25.5250 -77.8997 138° Southeast 322 371 13,000  Level Miami Center
Sat 09:00:00 PM 25.0390 -77.4662 180° South  Level Estimated
Sat 09:00:19 PM 25.4606 -77.8439 142° Southeast 310 357 11,900  Level Miami Center
Sat 09:01:00 PM 25.0390 -77.4662 180° South  Level Estimated
Sat 09:02:00 PM 25.0390 -77.4662 180° South  Level Estimated
Sat 09:03:00 PM 25.0390 -77.4662 180° South  Level Estimated

Login

Don't have an account? Register now (free) for customized features, flight alerts, and more!